createdAt,value
2022-07-29T00:00:46.698Z,99.90
2022-07-29T00:03:14.559Z,99.90
2022-07-29T00:05:44.392Z,99.90
2022-07-29T00:08:17.279Z,99.90
2022-07-29T00:10:44.196Z,99.90
2022-07-29T00:13:11.077Z,99.90
2022-07-29T00:15:38.179Z,99.90
2022-07-29T00:18:05.209Z,99.90
2022-07-29T00:20:32.120Z,99.90
2022-07-29T00:22:58.905Z,99.90
2022-07-29T00:25:28.540Z,99.90
2022-07-29T00:27:55.446Z,99.90
2022-07-29T00:30:22.475Z,99.90
2022-07-29T00:32:49.546Z,99.90
2022-07-29T00:35:34.817Z,99.90
2022-07-29T00:38:02.200Z,99.90
2022-07-29T00:40:31.969Z,99.90
2022-07-29T00:42:58.835Z,99.90
2022-07-29T00:45:26.412Z,99.90
2022-07-29T00:47:55.572Z,99.90
2022-07-29T00:50:23.519Z,99.90
2022-07-29T00:52:51.677Z,99.90
2022-07-29T00:55:18.887Z,99.90
2022-07-29T00:57:46.861Z,99.90
2022-07-29T01:00:18.409Z,99.90
2022-07-29T01:02:49.281Z,99.90
2022-07-29T01:05:48.178Z,99.90
2022-07-29T01:08:17.040Z,99.90
2022-07-29T01:10:46.704Z,99.90
2022-07-29T01:13:15.717Z,99.90
2022-07-29T01:15:50.621Z,99.90
2022-07-29T01:18:32.546Z,99.90
2022-07-29T01:21:47.529Z,99.90
2022-07-29T01:24:31.094Z,99.90
2022-07-29T01:27:09.969Z,99.90
2022-07-29T01:29:55.008Z,99.90
2022-07-29T01:32:29.217Z,99.90
2022-07-29T01:35:34.766Z,99.90
2022-07-29T01:38:16.066Z,99.90
2022-07-29T01:40:52.479Z,99.90
2022-07-29T01:43:28.454Z,99.90
2022-07-29T01:46:02.382Z,99.90
2022-07-29T01:48:41.117Z,99.90
2022-07-29T01:51:31.948Z,99.90
2022-07-29T01:54:28.621Z,99.90
2022-07-29T01:56:59.598Z,99.90
2022-07-29T01:59:33.931Z,99.90
2022-07-29T02:02:03.315Z,99.90
2022-07-29T02:04:32.924Z,99.90
2022-07-29T02:07:04.812Z,99.90
2022-07-29T02:09:37.136Z,99.90
2022-07-29T02:12:06.888Z,99.90
2022-07-29T02:14:37.885Z,99.90
2022-07-29T02:17:04.954Z,99.90
2022-07-29T02:19:34.053Z,99.90
2022-07-29T02:22:02.223Z,99.90
2022-07-29T02:24:30.701Z,99.90
2022-07-29T02:27:00.230Z,99.90
2022-07-29T02:29:29.585Z,99.90
2022-07-29T02:31:59.130Z,99.90
2022-07-29T02:34:26.690Z,99.90
2022-07-29T02:36:58.672Z,99.90
2022-07-29T02:39:28.494Z,99.90
2022-07-29T02:42:06.972Z,99.90
2022-07-29T02:44:37.328Z,99.90
2022-07-29T02:47:22.971Z,99.90
2022-07-29T02:50:09.540Z,99.90
2022-07-29T02:53:00.811Z,99.90
2022-07-29T02:55:33.569Z,99.90
2022-07-29T02:58:04.607Z,99.90
2022-07-29T03:00:36.129Z,99.90
2022-07-29T03:03:06.955Z,99.90
2022-07-29T03:05:34.500Z,99.90
2022-07-29T03:08:07.110Z,99.90
2022-07-29T03:10:35.143Z,99.90
2022-07-29T03:13:05.213Z,99.90
2022-07-29T03:15:41.720Z,99.90
2022-07-29T03:18:12.190Z,99.90
2022-07-29T03:20:40.115Z,99.90
2022-07-29T03:23:07.229Z,99.90
2022-07-29T03:25:34.291Z,99.90
2022-07-29T03:28:01.705Z,99.90
2022-07-29T03:30:31.608Z,99.90
2022-07-29T03:32:59.088Z,99.90
2022-07-29T03:35:26.120Z,99.90
2022-07-29T03:37:58.606Z,99.90
2022-07-29T03:40:56.197Z,99.90
2022-07-29T03:43:26.162Z,99.90
2022-07-29T03:45:56.043Z,99.90
2022-07-29T03:48:25.033Z,99.90
2022-07-29T03:50:58.019Z,99.90
2022-07-29T03:53:24.930Z,99.90
2022-07-29T03:55:59.414Z,99.90
2022-07-29T03:58:28.556Z,99.90
2022-07-29T04:00:56.807Z,99.90
2022-07-29T04:03:24.086Z,99.90
2022-07-29T04:06:07.027Z,99.90
2022-07-29T04:08:35.342Z,99.90
2022-07-29T04:11:02.614Z,99.90
2022-07-29T04:13:29.806Z,99.90
2022-07-29T04:15:56.877Z,99.90
2022-07-29T04:18:24.194Z,99.90
2022-07-29T04:20:51.077Z,99.90
2022-07-29T04:23:18.032Z,99.90
2022-07-29T04:25:45.062Z,99.90
2022-07-29T04:28:12.003Z,99.90
2022-07-29T04:30:39.425Z,99.90
2022-07-29T04:33:08.175Z,99.90
2022-07-29T04:35:38.261Z,99.90
2022-07-29T04:38:07.466Z,99.90
2022-07-29T04:40:42.367Z,99.90
2022-07-29T04:43:09.372Z,99.90
2022-07-29T04:45:38.801Z,99.90
2022-07-29T04:48:06.071Z,99.90
2022-07-29T04:50:33.492Z,99.90
2022-07-29T04:53:00.379Z,99.90
2022-07-29T04:55:27.409Z,99.90
2022-07-29T04:57:54.418Z,99.90
2022-07-29T05:00:24.259Z,99.90
2022-07-29T05:03:01.170Z,99.90
2022-07-29T05:05:28.206Z,99.90
2022-07-29T05:07:55.176Z,99.90
2022-07-29T05:10:22.360Z,99.90
2022-07-29T05:12:51.872Z,99.90
2022-07-29T05:15:18.957Z,99.90
2022-07-29T05:17:45.924Z,99.90
2022-07-29T05:20:17.278Z,99.90
2022-07-29T05:22:45.049Z,99.90
2022-07-29T05:25:11.945Z,99.90
2022-07-29T05:27:38.894Z,99.90
2022-07-29T05:30:06.379Z,99.90
2022-07-29T05:32:35.940Z,99.90
2022-07-29T05:35:03.007Z,99.90
2022-07-29T05:37:29.832Z,99.90
2022-07-29T05:39:59.048Z,99.90
2022-07-29T05:42:26.533Z,99.90
2022-07-29T05:44:54.265Z,99.90
2022-07-29T05:47:21.152Z,99.90
2022-07-29T05:49:48.265Z,99.90
2022-07-29T05:52:15.928Z,99.90
2022-07-29T05:54:42.889Z,99.90
2022-07-29T05:57:15.911Z,99.90
2022-07-29T05:59:42.815Z,99.90
2022-07-29T06:02:09.907Z,99.90
2022-07-29T06:04:36.953Z,99.90
2022-07-29T06:07:04.378Z,99.90
2022-07-29T06:09:36.024Z,99.90
2022-07-29T06:12:06.863Z,99.90
2022-07-29T06:14:34.411Z,99.90
2022-07-29T06:17:03.210Z,99.90
2022-07-29T06:19:30.204Z,99.90
2022-07-29T06:21:57.097Z,99.90
2022-07-29T06:24:24.137Z,99.90
2022-07-29T06:26:52.873Z,99.90
2022-07-29T06:29:19.822Z,99.90
2022-07-29T06:31:46.729Z,99.90
2022-07-29T06:34:13.814Z,99.90
2022-07-29T06:36:41.199Z,99.90
2022-07-29T06:39:09.284Z,99.90
2022-07-29T06:41:38.387Z,99.90
2022-07-29T06:44:10.115Z,99.90
2022-07-29T06:46:37.530Z,99.90
2022-07-29T06:49:05.927Z,99.90
2022-07-29T06:51:33.561Z,99.50
2022-07-29T06:54:02.936Z,99.70
2022-07-29T06:56:39.214Z,99.70
2022-07-29T06:59:07.518Z,99.40
2022-07-29T07:01:36.866Z,99.20
2022-07-29T07:04:03.992Z,99.20
2022-07-29T07:06:35.059Z,98.70
2022-07-29T07:09:02.155Z,99.10
2022-07-29T07:11:29.468Z,99.10
2022-07-29T07:14:02.235Z,98.70
2022-07-29T07:16:30.366Z,98.80
2022-07-29T07:18:57.212Z,98.70
2022-07-29T07:21:24.840Z,98.90
2022-07-29T07:23:51.751Z,98.70
2022-07-29T07:26:18.690Z,99.20
2022-07-29T07:28:48.337Z,99.30
2022-07-29T07:31:15.236Z,99.20
2022-07-29T07:33:44.334Z,99.30
2022-07-29T07:36:11.195Z,99.00
2022-07-29T07:38:41.202Z,99.20
2022-07-29T07:41:08.346Z,98.80
2022-07-29T07:43:35.185Z,98.60
2022-07-29T07:46:02.097Z,98.40
2022-07-29T07:48:32.017Z,98.40
2022-07-29T07:50:58.904Z,98.40
2022-07-29T07:53:25.700Z,98.40
2022-07-29T07:56:12.548Z,97.90
2022-07-29T07:58:40.179Z,97.30
2022-07-29T08:01:07.271Z,96.80
2022-07-29T08:03:38.272Z,96.20
2022-07-29T08:06:08.782Z,95.40
2022-07-29T08:08:35.805Z,95.40
2022-07-29T08:11:09.158Z,94.50
2022-07-29T08:13:40.484Z,93.80
2022-07-29T08:16:15.872Z,93.20
2022-07-29T08:18:44.170Z,92.00
2022-07-29T08:21:14.854Z,91.80
2022-07-29T08:24:00.845Z,90.90
2022-07-29T08:26:29.789Z,90.80
2022-07-29T08:28:59.576Z,91.20
2022-07-29T08:31:26.520Z,91.20
2022-07-29T08:33:53.398Z,90.70
2022-07-29T08:36:24.257Z,90.50
2022-07-29T08:38:51.069Z,89.10
2022-07-29T08:41:21.496Z,88.90
2022-07-29T08:43:49.731Z,87.40
2022-07-29T08:46:18.356Z,85.40
2022-07-29T08:48:45.727Z,85.80
2022-07-29T08:51:17.935Z,84.50
2022-07-29T08:53:46.294Z,84.70
2022-07-29T08:56:15.261Z,83.40
2022-07-29T08:58:46.870Z,81.00
2022-07-29T09:01:23.265Z,82.10
2022-07-29T09:04:05.594Z,81.70
2022-07-29T09:06:35.790Z,80.80
2022-07-29T09:09:02.718Z,83.70
2022-07-29T09:11:29.664Z,80.90
2022-07-29T09:13:58.564Z,80.00
2022-07-29T09:16:50.830Z,78.30
2022-07-29T09:19:35.047Z,77.70
2022-07-29T09:22:09.557Z,78.10
2022-07-29T09:24:48.403Z,75.30
2022-07-29T09:27:18.294Z,75.00
2022-07-29T09:29:45.270Z,73.40
2022-07-29T09:32:12.186Z,73.00
2022-07-29T09:34:39.237Z,71.70
2022-07-29T09:37:06.552Z,70.10
2022-07-29T09:39:34.622Z,71.40
2022-07-29T09:42:06.792Z,67.50
2022-07-29T09:44:50.974Z,67.20
2022-07-29T09:47:19.565Z,65.60
2022-07-29T09:49:59.244Z,64.70
2022-07-29T09:52:28.334Z,66.10
2022-07-29T09:55:08.126Z,65.10
2022-07-29T09:57:35.014Z,63.70
2022-07-29T10:00:26.901Z,63.10
2022-07-29T10:03:02.464Z,60.00
2022-07-29T10:05:36.056Z,60.50
2022-07-29T10:08:04.124Z,58.10
2022-07-29T10:10:39.377Z,56.50
2022-07-29T10:13:16.808Z,56.90
2022-07-29T10:15:46.667Z,57.60
2022-07-29T10:18:15.027Z,57.50
2022-07-29T10:20:41.912Z,57.00
2022-07-29T10:23:10.445Z,56.00
2022-07-29T10:25:37.861Z,56.20
2022-07-29T10:28:06.775Z,56.00
2022-07-29T10:30:34.105Z,55.90
2022-07-29T10:33:16.791Z,55.10
2022-07-29T10:36:35.053Z,54.90
2022-07-29T10:39:08.353Z,56.30
2022-07-29T10:41:53.569Z,55.90
2022-07-29T10:44:26.014Z,55.30
2022-07-29T10:46:56.396Z,54.50
2022-07-29T10:49:31.127Z,54.40
2022-07-29T10:52:00.215Z,54.10
2022-07-29T10:54:36.515Z,56.10
2022-07-29T10:57:54.519Z,55.80
2022-07-29T11:00:30.757Z,56.10
2022-07-29T11:02:59.237Z,55.20
2022-07-29T11:05:39.943Z,55.60
2022-07-29T11:08:19.742Z,56.40
2022-07-29T11:10:52.433Z,56.90
2022-07-29T11:13:47.257Z,55.40
2022-07-29T11:16:17.043Z,55.40
2022-07-29T11:19:21.617Z,57.70
2022-07-29T11:21:58.502Z,58.60
2022-07-29T11:24:30.026Z,56.90
2022-07-29T11:27:31.630Z,57.80
2022-07-29T11:30:04.658Z,57.20
2022-07-29T11:32:44.751Z,58.50
2022-07-29T11:35:19.155Z,56.00
2022-07-29T11:38:29.332Z,57.00
2022-07-29T11:41:23.924Z,56.00
2022-07-29T11:44:01.466Z,57.50
2022-07-29T11:46:49.622Z,56.30
2022-07-29T11:49:32.521Z,55.30
2022-07-29T11:52:04.337Z,56.40
2022-07-29T11:54:38.911Z,57.20
2022-07-29T11:57:22.008Z,55.80
2022-07-29T11:59:48.879Z,54.60
2022-07-29T12:02:38.364Z,55.10
2022-07-29T12:05:10.656Z,55.00
2022-07-29T12:07:42.085Z,54.10
2022-07-29T12:10:19.555Z,53.10
2022-07-29T12:12:53.969Z,54.10
2022-07-29T12:15:22.193Z,52.50
2022-07-29T12:17:49.438Z,51.00
2022-07-29T12:20:31.781Z,52.50
2022-07-29T12:22:58.778Z,49.40
2022-07-29T12:25:34.051Z,49.30
2022-07-29T12:28:04.098Z,50.70
2022-07-29T12:30:42.237Z,51.20
2022-07-29T12:33:13.841Z,50.20
2022-07-29T12:35:42.194Z,48.10
2022-07-29T12:38:16.813Z,46.50
2022-07-29T12:40:47.861Z,45.60
2022-07-29T12:43:25.533Z,44.70
2022-07-29T12:45:58.412Z,43.30
2022-07-29T12:48:39.439Z,43.00
2022-07-29T12:51:09.660Z,42.20
2022-07-29T12:53:37.988Z,42.10
2022-07-29T12:56:20.628Z,41.80
2022-07-29T12:58:51.271Z,42.10
2022-07-29T13:01:20.490Z,41.60
2022-07-29T13:03:57.178Z,42.40
2022-07-29T13:07:08.177Z,41.90
2022-07-29T13:09:43.808Z,42.30
2022-07-29T13:12:15.701Z,40.90
2022-07-29T13:14:50.984Z,40.40
2022-07-29T13:17:25.523Z,40.50
2022-07-29T13:20:08.885Z,41.30
2022-07-29T13:22:36.863Z,41.00
2022-07-29T13:25:04.143Z,39.70
2022-07-29T13:27:34.844Z,40.20
2022-07-29T13:30:03.893Z,38.80
2022-07-29T13:32:31.828Z,38.80
2022-07-29T13:35:01.658Z,39.10
2022-07-29T13:37:34.977Z,40.60
2022-07-29T13:40:04.590Z,38.50
2022-07-29T13:42:34.642Z,39.10
2022-07-29T13:45:02.629Z,39.10
2022-07-29T13:47:31.831Z,39.30
2022-07-29T13:50:01.272Z,37.60
2022-07-29T13:52:28.599Z,36.80
2022-07-29T13:54:55.376Z,37.60
2022-07-29T13:57:24.005Z,36.20
2022-07-29T13:59:54.592Z,36.90
2022-07-29T14:02:25.346Z,36.20
2022-07-29T14:04:52.594Z,36.30
2022-07-29T14:07:19.514Z,36.30
2022-07-29T14:09:46.282Z,35.80
2022-07-29T14:12:13.674Z,35.90
2022-07-29T14:14:40.673Z,35.10
2022-07-29T14:17:07.921Z,34.60
2022-07-29T14:19:39.438Z,34.80
2022-07-29T14:22:08.490Z,34.50
2022-07-29T14:24:42.112Z,34.10
2022-07-29T14:27:09.823Z,34.00
2022-07-29T14:29:38.519Z,33.30
2022-07-29T14:32:08.198Z,33.70
2022-07-29T14:34:36.379Z,35.50
2022-07-29T14:37:06.611Z,37.30
2022-07-29T14:39:42.168Z,37.70
2022-07-29T14:42:10.297Z,39.20
2022-07-29T14:44:40.042Z,41.10
2022-07-29T14:47:08.237Z,39.30
2022-07-29T14:49:36.291Z,39.20
2022-07-29T14:52:03.875Z,39.80
2022-07-29T14:54:30.717Z,39.10
2022-07-29T14:56:58.640Z,39.50
2022-07-29T14:59:27.424Z,37.50
2022-07-29T15:01:54.544Z,37.70
2022-07-29T15:04:21.569Z,36.80
2022-07-29T15:06:50.772Z,37.00
2022-07-29T15:09:17.619Z,36.10
2022-07-29T15:11:44.619Z,35.80
2022-07-29T15:14:11.455Z,35.00
2022-07-29T15:16:43.863Z,35.20
2022-07-29T15:19:14.111Z,35.10
2022-07-29T15:21:48.267Z,34.30
2022-07-29T15:24:20.175Z,33.80
2022-07-29T15:26:47.903Z,35.10
2022-07-29T15:29:15.320Z,35.30
2022-07-29T15:31:42.177Z,35.20
2022-07-29T15:34:19.947Z,34.50
2022-07-29T15:36:52.607Z,35.30
2022-07-29T15:39:20.980Z,35.60
2022-07-29T15:41:47.780Z,35.50
2022-07-29T15:44:14.650Z,36.00
2022-07-29T15:47:00.247Z,35.40
2022-07-29T15:49:46.632Z,35.90
2022-07-29T15:52:25.171Z,37.30
2022-07-29T15:54:54.445Z,38.30
2022-07-29T15:57:21.313Z,39.30
2022-07-29T15:59:48.267Z,38.10
2022-07-29T16:02:15.003Z,36.90
2022-07-29T16:04:41.717Z,37.50
2022-07-29T16:07:11.712Z,36.60
2022-07-29T16:09:38.502Z,36.60
2022-07-29T16:12:15.362Z,37.20
2022-07-29T16:14:43.810Z,36.30
2022-07-29T16:17:17.367Z,37.90
2022-07-29T16:19:47.755Z,39.70
2022-07-29T16:22:14.795Z,38.90
2022-07-29T16:24:41.746Z,37.70
2022-07-29T16:27:08.636Z,38.30
2022-07-29T16:29:37.113Z,39.00
2022-07-29T16:32:05.497Z,39.60
2022-07-29T16:34:32.341Z,40.40
2022-07-29T16:36:59.461Z,41.30
2022-07-29T16:39:28.711Z,41.40
2022-07-29T16:41:59.856Z,42.70
2022-07-29T16:44:28.547Z,43.30
2022-07-29T16:46:59.193Z,43.30
2022-07-29T16:49:27.325Z,46.40
2022-07-29T16:51:54.239Z,45.00
2022-07-29T16:54:23.040Z,44.20
2022-07-29T16:56:50.043Z,43.70
2022-07-29T16:59:17.022Z,42.90
2022-07-29T17:01:43.884Z,43.90
2022-07-29T17:04:16.577Z,42.40
2022-07-29T17:06:43.481Z,41.80
2022-07-29T17:09:11.879Z,41.90
2022-07-29T17:11:52.630Z,40.60
2022-07-29T17:14:25.324Z,40.10
2022-07-29T17:17:00.020Z,39.90
2022-07-29T17:19:35.095Z,40.10
2022-07-29T17:22:15.860Z,39.60
2022-07-29T17:24:45.751Z,39.30
2022-07-29T17:27:14.837Z,39.90
2022-07-29T17:29:42.466Z,39.90
2022-07-29T17:32:10.803Z,40.30
2022-07-29T17:34:38.762Z,40.00
2022-07-29T17:37:06.777Z,40.00
2022-07-29T17:39:35.455Z,40.20
2022-07-29T17:42:04.064Z,41.60
2022-07-29T17:44:31.313Z,41.00
2022-07-29T17:47:00.448Z,40.60
2022-07-29T17:49:29.263Z,40.80
2022-07-29T17:52:00.642Z,40.30
2022-07-29T17:54:28.747Z,40.70
2022-07-29T17:56:55.869Z,40.40
2022-07-29T17:59:22.920Z,40.70
2022-07-29T18:01:49.790Z,40.80
2022-07-29T18:04:20.353Z,40.90
2022-07-29T18:06:47.234Z,41.40
2022-07-29T18:09:14.050Z,42.30
2022-07-29T18:11:40.843Z,43.60
2022-07-29T18:14:11.292Z,44.40
2022-07-29T18:16:38.463Z,44.50
2022-07-29T18:19:05.676Z,46.60
2022-07-29T18:21:39.339Z,45.80
2022-07-29T18:24:18.852Z,45.50
2022-07-29T18:26:45.723Z,46.00
2022-07-29T18:29:12.503Z,47.20
2022-07-29T18:31:41.107Z,45.80
2022-07-29T18:34:08.214Z,46.00
2022-07-29T18:36:38.083Z,47.40
2022-07-29T18:39:04.948Z,48.30
2022-07-29T18:41:31.915Z,50.70
2022-07-29T18:43:59.038Z,51.90
2022-07-29T18:46:25.932Z,50.60
2022-07-29T18:48:52.931Z,50.40
2022-07-29T18:51:19.744Z,50.90
2022-07-29T18:53:46.890Z,51.30
2022-07-29T18:56:13.808Z,51.10
2022-07-29T18:58:40.805Z,51.30
2022-07-29T19:01:07.594Z,51.20
2022-07-29T19:03:34.815Z,51.90
2022-07-29T19:06:01.625Z,52.00
2022-07-29T19:08:28.918Z,52.60
2022-07-29T19:10:55.866Z,53.50
2022-07-29T19:13:23.050Z,53.10
2022-07-29T19:15:50.266Z,53.40
2022-07-29T19:18:17.355Z,53.10
2022-07-29T19:20:44.189Z,53.50
2022-07-29T19:23:11.578Z,54.10
2022-07-29T19:25:53.229Z,54.30
2022-07-29T19:28:21.963Z,54.70
2022-07-29T19:30:49.776Z,54.60
2022-07-29T19:33:19.546Z,54.70
2022-07-29T19:35:54.599Z,55.10
2022-07-29T19:38:23.149Z,55.00
2022-07-29T19:40:49.922Z,55.20
2022-07-29T19:43:51.397Z,55.20
2022-07-29T19:46:10.192Z,55.30
2022-07-29T19:48:37.177Z,56.10
2022-07-29T19:51:04.146Z,56.00
2022-07-29T19:53:31.062Z,55.80
2022-07-29T19:55:58.123Z,55.80
2022-07-29T19:58:26.959Z,56.00
2022-07-29T20:00:54.050Z,56.00
2022-07-29T20:03:21.132Z,56.50
2022-07-29T20:05:50.981Z,57.20
2022-07-29T20:08:18.373Z,57.20
2022-07-29T20:10:45.299Z,57.00
2022-07-29T20:13:12.914Z,57.10
2022-07-29T20:15:39.763Z,57.20
2022-07-29T20:18:06.665Z,57.30
2022-07-29T20:20:35.439Z,57.60
2022-07-29T20:23:05.361Z,57.80
2022-07-29T20:25:34.868Z,57.90
2022-07-29T20:28:01.708Z,58.10
2022-07-29T20:30:33.081Z,58.10
2022-07-29T20:33:00.064Z,58.70
2022-07-29T20:35:27.957Z,58.70
2022-07-29T20:37:56.610Z,59.10
2022-07-29T20:40:29.280Z,59.10
2022-07-29T20:42:56.326Z,58.80
2022-07-29T20:45:26.976Z,59.30
2022-07-29T20:47:53.798Z,59.10
2022-07-29T20:50:24.862Z,59.30
2022-07-29T20:52:52.356Z,59.00
2022-07-29T20:55:19.134Z,59.00
2022-07-29T20:57:45.975Z,58.90
2022-07-29T21:00:13.367Z,59.10
2022-07-29T21:02:41.372Z,59.60
2022-07-29T21:05:08.364Z,59.40
2022-07-29T21:07:35.328Z,59.60
2022-07-29T21:10:02.214Z,59.80
2022-07-29T21:12:30.064Z,60.60
2022-07-29T21:14:57.918Z,60.20
2022-07-29T21:17:25.209Z,60.40
2022-07-29T21:19:55.345Z,60.30
2022-07-29T21:22:22.525Z,60.40
2022-07-29T21:24:49.578Z,60.80
2022-07-29T21:27:49.369Z,60.40
2022-07-29T21:30:16.281Z,60.70
2022-07-29T21:32:43.330Z,61.00
2022-07-29T21:35:22.374Z,61.50
2022-07-29T21:37:58.720Z,61.30
2022-07-29T21:40:25.585Z,61.70
2022-07-29T21:42:52.587Z,62.10
2022-07-29T21:45:23.755Z,62.50
2022-07-29T21:47:50.644Z,61.50
2022-07-29T21:50:17.559Z,61.90
2022-07-29T21:52:44.426Z,62.10
2022-07-29T21:55:11.546Z,62.20
2022-07-29T21:57:38.606Z,62.30
2022-07-29T22:00:07.975Z,62.10
2022-07-29T22:02:39.447Z,62.30
2022-07-29T22:05:06.556Z,62.50
2022-07-29T22:07:56.069Z,62.40
2022-07-29T22:10:23.825Z,63.30
2022-07-29T22:12:55.035Z,62.70
2022-07-29T22:15:25.755Z,63.10
2022-07-29T22:17:53.029Z,62.90
2022-07-29T22:20:23.414Z,62.90
2022-07-29T22:22:50.509Z,63.00
2022-07-29T22:25:17.822Z,63.00
2022-07-29T22:27:44.873Z,62.90
2022-07-29T22:30:12.363Z,63.10
2022-07-29T22:32:40.139Z,63.10
2022-07-29T22:35:07.684Z,63.80
2022-07-29T22:37:34.496Z,63.70
2022-07-29T22:40:01.620Z,63.70
2022-07-29T22:42:31.125Z,63.20
2022-07-29T22:44:57.943Z,63.70
2022-07-29T22:47:46.062Z,63.80
2022-07-29T22:50:17.792Z,64.10
2022-07-29T22:52:45.617Z,64.40
2022-07-29T22:55:12.824Z,64.50
2022-07-29T22:57:39.769Z,64.60
2022-07-29T23:00:08.039Z,65.00
2022-07-29T23:02:36.229Z,65.20
2022-07-29T23:05:03.479Z,65.50
2022-07-29T23:07:30.308Z,65.40
2022-07-29T23:09:57.067Z,65.40
2022-07-29T23:12:24.014Z,65.30
2022-07-29T23:14:51.577Z,65.30
2022-07-29T23:17:18.658Z,65.50
2022-07-29T23:19:45.496Z,65.90
2022-07-29T23:22:12.315Z,65.80
2022-07-29T23:24:39.229Z,65.90
2022-07-29T23:27:07.716Z,66.70
2022-07-29T23:29:36.745Z,66.40
2022-07-29T23:32:04.760Z,66.40
2022-07-29T23:34:31.553Z,66.90
2022-07-29T23:36:58.854Z,67.30
2022-07-29T23:39:25.945Z,67.80
2022-07-29T23:41:52.813Z,67.80
2022-07-29T23:44:19.772Z,68.40
2022-07-29T23:46:46.962Z,68.20
2022-07-29T23:49:14.477Z,69.40
2022-07-29T23:51:41.315Z,69.00
2022-07-29T23:54:08.254Z,70.10
2022-07-29T23:56:38.190Z,70.50
2022-07-29T23:59:05.964Z,70.90
